createdAt,value
2023-02-02T04:19:39.868Z,10.43
2023-02-02T04:22:08.016Z,11.13
2023-02-02T04:24:37.996Z,11.45
2023-02-02T04:27:06.205Z,10.43
2023-02-02T04:29:34.317Z,10.88
2023-02-02T04:32:02.611Z,9.30
2023-02-02T04:34:30.773Z,10.63
2023-02-02T04:37:00.226Z,10.07
2023-02-02T04:39:28.385Z,9.20
2023-02-02T04:41:56.432Z,9.00
2023-02-02T04:44:24.780Z,9.40
2023-02-02T04:46:53.026Z,7.90
2023-02-02T04:49:22.012Z,7.75
2023-02-02T04:51:51.475Z,6.78
2023-02-02T04:54:21.208Z,6.60
2023-02-02T04:56:49.424Z,4.80
2023-02-02T04:59:17.567Z,3.13
2023-02-02T05:01:45.788Z,3.10
2023-02-02T05:04:13.916Z,3.33
2023-02-02T05:06:42.085Z,2.22
2023-02-02T05:09:10.169Z,2.17
2023-02-02T05:11:40.140Z,2.58
2023-02-02T05:14:08.255Z,2.80
2023-02-02T05:16:36.562Z,2.75
2023-02-02T05:19:04.898Z,2.75
2023-02-02T05:21:33.264Z,3.13
2023-02-02T05:24:01.697Z,2.42
2023-02-02T05:26:29.993Z,2.33
2023-02-02T05:29:06.821Z,2.28
2023-02-02T05:31:35.452Z,2.95
2023-02-02T05:34:03.834Z,2.55
2023-02-02T05:36:31.975Z,2.53
2023-02-02T05:39:00.406Z,2.83
2023-02-02T05:41:30.998Z,2.00
2023-02-02T05:44:08.526Z,2.65
2023-02-02T05:46:36.685Z,2.03
2023-02-02T05:49:06.227Z,1.92
2023-02-02T05:51:36.492Z,2.45
2023-02-02T05:54:04.816Z,3.17
2023-02-02T05:56:32.937Z,2.47
2023-02-02T05:59:01.331Z,2.75
2023-02-02T06:01:30.937Z,3.40
2023-02-02T06:03:59.176Z,3.78
2023-02-02T06:06:30.109Z,4.03
2023-02-02T06:09:01.441Z,4.22
2023-02-02T06:11:29.900Z,5.78
2023-02-02T06:13:59.815Z,8.35
2023-02-02T06:16:28.247Z,8.00
2023-02-02T06:18:58.347Z,10.30
2023-02-02T06:21:27.090Z,12.25
2023-02-02T06:23:55.294Z,10.23
2023-02-02T06:26:23.386Z,11.40
2023-02-02T06:28:52.886Z,11.55
2023-02-02T06:31:21.532Z,10.85
2023-02-02T06:33:53.395Z,12.90
2023-02-02T06:36:23.340Z,16.55
2023-02-02T06:38:52.080Z,15.63
2023-02-02T06:41:20.508Z,15.30
2023-02-02T06:43:50.211Z,17.50
2023-02-02T06:46:18.918Z,18.58
2023-02-02T06:48:47.077Z,20.38
2023-02-02T06:51:15.138Z,18.35
2023-02-02T06:53:44.578Z,19.27
2023-02-02T06:56:14.111Z,17.58
2023-02-02T06:58:42.441Z,19.30
2023-02-02T07:01:12.428Z,18.77
2023-02-02T07:03:40.675Z,15.68
2023-02-02T07:06:15.819Z,19.60
2023-02-02T07:08:45.380Z,19.70
2023-02-02T07:11:19.827Z,17.48
2023-02-02T07:13:49.521Z,19.65
2023-02-02T07:16:18.924Z,15.55
2023-02-02T07:18:48.304Z,16.38
2023-02-02T07:21:21.555Z,14.95
2023-02-02T07:23:51.309Z,12.07
2023-02-02T07:26:20.185Z,14.55
2023-02-02T07:28:49.640Z,14.95
2023-02-02T07:31:20.901Z,16.58
2023-02-02T07:33:49.754Z,14.70
2023-02-02T07:36:19.317Z,17.58
2023-02-02T07:38:48.498Z,15.43
2023-02-02T07:41:18.387Z,14.32
2023-02-02T07:43:48.325Z,16.38
2023-02-02T07:46:17.264Z,14.98
2023-02-02T07:48:45.484Z,15.57
2023-02-02T07:51:19.404Z,16.58
2023-02-02T07:53:48.312Z,14.38
2023-02-02T07:56:19.878Z,16.65
2023-02-02T07:58:48.347Z,17.17
2023-02-02T08:01:17.580Z,15.40
2023-02-02T08:03:45.979Z,16.35
2023-02-02T08:06:16.563Z,15.93
2023-02-02T08:08:45.593Z,13.85
2023-02-02T08:11:15.515Z,14.20
2023-02-02T08:13:45.332Z,14.75
2023-02-02T08:16:13.796Z,10.50
2023-02-02T08:18:42.347Z,8.07
2023-02-02T08:21:10.936Z,12.05
2023-02-02T08:23:40.172Z,11.73
2023-02-02T08:26:10.492Z,11.82
2023-02-02T08:28:38.960Z,12.85
2023-02-02T08:31:10.575Z,11.73
2023-02-02T08:33:40.037Z,12.40
2023-02-02T08:36:11.285Z,12.73
2023-02-02T08:38:39.284Z,13.65
2023-02-02T08:41:07.946Z,14.63
2023-02-02T08:43:36.037Z,14.65
2023-02-02T08:46:05.739Z,14.68
2023-02-02T08:48:36.632Z,15.13
2023-02-02T08:51:05.745Z,13.38
2023-02-02T08:53:34.092Z,14.20
2023-02-02T08:56:04.025Z,13.93
2023-02-02T08:58:33.857Z,14.32
2023-02-02T09:01:08.862Z,14.88
2023-02-02T09:03:40.380Z,13.95
2023-02-02T09:06:10.289Z,14.40
2023-02-02T09:08:38.468Z,15.32
2023-02-02T09:11:08.043Z,14.95
2023-02-02T09:13:36.137Z,14.52
2023-02-02T09:16:06.163Z,14.70
2023-02-02T09:18:34.351Z,13.25
2023-02-02T09:21:05.152Z,13.50
2023-02-02T09:23:33.957Z,14.27
2023-02-02T09:26:10.612Z,14.05
2023-02-02T09:28:39.572Z,14.07
2023-02-02T09:31:10.445Z,12.80
2023-02-02T09:33:38.899Z,12.65
2023-02-02T09:36:10.845Z,11.73
2023-02-02T09:38:39.783Z,12.60
2023-02-02T09:41:33.642Z,12.02
2023-02-02T09:44:07.578Z,12.20
2023-02-02T09:46:43.693Z,10.07
2023-02-02T09:49:14.898Z,10.63
2023-02-02T09:51:46.824Z,8.45
2023-02-02T09:54:18.945Z,8.70
2023-02-02T09:56:51.415Z,8.53
2023-02-02T09:59:24.395Z,10.02
2023-02-02T10:01:56.127Z,10.63
2023-02-02T10:04:28.052Z,8.93
2023-02-02T10:07:00.326Z,10.23
2023-02-02T10:09:34.794Z,9.93
2023-02-02T10:12:07.800Z,9.68
2023-02-02T10:14:45.115Z,9.57
2023-02-02T10:17:27.701Z,10.20
2023-02-02T10:20:01.015Z,8.73
2023-02-02T10:22:31.123Z,7.78
2023-02-02T10:24:59.262Z,6.72
2023-02-02T10:27:37.901Z,6.60
2023-02-02T10:30:13.177Z,6.95
2023-02-02T10:32:48.699Z,5.90
2023-02-02T10:35:31.621Z,7.18
2023-02-02T10:38:05.300Z,5.90
2023-02-02T10:40:42.061Z,6.35
2023-02-02T10:43:49.889Z,8.13
2023-02-02T10:46:22.450Z,5.28
2023-02-02T10:48:52.874Z,6.15
2023-02-02T10:51:24.216Z,5.60
2023-02-02T10:53:55.538Z,6.95
2023-02-02T10:56:27.424Z,7.00
2023-02-02T10:58:59.733Z,7.72
2023-02-02T11:01:27.920Z,7.35
2023-02-02T11:04:09.868Z,7.75
2023-02-02T11:06:53.317Z,7.80
2023-02-02T11:09:28.506Z,9.05
2023-02-02T11:12:01.011Z,9.48
2023-02-02T11:14:45.088Z,9.93
2023-02-02T11:17:20.717Z,9.13
2023-02-02T11:19:49.837Z,9.75
2023-02-02T11:22:30.703Z,8.55
2023-02-02T11:25:02.413Z,8.10
2023-02-02T11:27:33.316Z,9.90
2023-02-02T11:30:09.694Z,9.48
2023-02-02T11:32:37.873Z,9.52
2023-02-02T11:35:17.802Z,9.90
2023-02-02T11:38:09.214Z,10.75
2023-02-02T11:40:40.979Z,10.38
2023-02-02T11:43:19.393Z,8.98
2023-02-02T11:45:53.883Z,7.95
2023-02-02T11:48:26.135Z,7.13
2023-02-02T11:50:58.032Z,9.00
2023-02-02T11:53:28.964Z,8.20
2023-02-02T11:56:01.170Z,9.00
2023-02-02T11:58:30.612Z,9.83
2023-02-02T12:01:01.186Z,11.50
2023-02-02T12:03:34.558Z,12.68
2023-02-02T12:06:03.186Z,14.13
2023-02-02T12:08:31.741Z,13.50
2023-02-02T12:11:03.164Z,12.15
2023-02-02T12:13:46.060Z,12.55
2023-02-02T12:16:27.469Z,14.23
2023-02-02T12:19:06.253Z,12.43
2023-02-02T12:21:41.880Z,12.85
2023-02-02T12:24:22.973Z,13.05
2023-02-02T12:26:58.335Z,13.60
2023-02-02T12:29:38.921Z,15.10
2023-02-02T12:32:27.965Z,13.05
2023-02-02T12:35:06.087Z,13.65
2023-02-02T12:37:44.916Z,12.73
2023-02-02T12:40:28.763Z,11.63
2023-02-02T12:43:08.947Z,12.95
2023-02-02T12:45:53.334Z,10.60
2023-02-02T12:48:32.728Z,12.55
2023-02-02T12:51:09.619Z,12.68
2023-02-02T12:54:32.813Z,12.75
2023-02-02T12:56:49.289Z,13.27
2023-02-02T12:59:29.068Z,13.45
2023-02-02T13:02:04.999Z,13.25
2023-02-02T13:04:51.719Z,13.10
2023-02-02T13:07:28.195Z,14.02
2023-02-02T13:10:10.867Z,12.25
2023-02-02T13:12:42.234Z,13.00
2023-02-02T13:15:14.535Z,14.00
2023-02-02T13:17:45.010Z,11.38
2023-02-02T13:20:23.245Z,13.43
2023-02-02T13:22:55.834Z,12.32
2023-02-02T13:25:28.077Z,10.68
2023-02-02T13:27:59.811Z,11.38
2023-02-02T13:30:34.296Z,9.55
2023-02-02T13:33:04.998Z,11.60
2023-02-02T13:35:36.969Z,11.30
2023-02-02T13:38:14.254Z,11.75
2023-02-02T13:40:43.701Z,11.80
2023-02-02T13:43:31.303Z,11.70
2023-02-02T13:46:12.480Z,12.48
2023-02-02T13:48:47.754Z,15.20
2023-02-02T13:51:40.962Z,15.20
2023-02-02T13:54:54.169Z,16.38
2023-02-02T13:57:56.667Z,15.87
2023-02-02T14:00:26.872Z,15.00
2023-02-02T14:02:58.418Z,15.57
2023-02-02T14:05:28.898Z,17.75
2023-02-02T14:08:03.185Z,16.25
2023-02-02T14:10:35.284Z,15.82
2023-02-02T14:13:29.665Z,17.08
2023-02-02T14:15:59.165Z,14.80
2023-02-02T14:18:59.517Z,15.25
2023-02-02T14:22:04.741Z,16.63
2023-02-02T14:24:42.091Z,14.65
2023-02-02T14:27:58.077Z,16.50
2023-02-02T14:30:29.824Z,22.05
2023-02-02T14:33:29.199Z,14.73
2023-02-02T14:36:04.086Z,16.48
2023-02-02T14:39:06.763Z,14.43
2023-02-02T14:42:25.726Z,13.50
2023-02-02T14:45:14.021Z,13.90
2023-02-02T14:47:51.774Z,15.13
2023-02-02T14:50:25.570Z,13.80
2023-02-02T14:53:08.492Z,11.88
2023-02-02T14:55:41.844Z,12.30
2023-02-02T14:58:11.410Z,13.05
2023-02-02T15:00:40.911Z,12.95
2023-02-02T15:03:37.654Z,12.88
2023-02-02T15:06:15.298Z,13.75
2023-02-02T15:08:46.668Z,14.38
2023-02-02T15:11:30.568Z,15.70
2023-02-02T15:14:07.337Z,17.65
2023-02-02T15:16:39.412Z,17.35
2023-02-02T15:19:15.163Z,17.65
2023-02-02T15:21:43.752Z,15.77
2023-02-02T15:24:24.188Z,14.40
2023-02-02T15:26:54.628Z,17.23
2023-02-02T15:29:34.987Z,17.70
2023-02-02T15:32:04.936Z,15.52
2023-02-02T15:34:42.186Z,16.23
2023-02-02T15:37:19.000Z,15.00
2023-02-02T15:39:50.281Z,17.73
2023-02-02T15:42:37.543Z,15.93
2023-02-02T15:45:06.500Z,13.50
2023-02-02T15:47:36.377Z,15.60
2023-02-02T15:50:06.362Z,13.80
2023-02-02T15:52:37.940Z,13.95
2023-02-02T15:55:21.919Z,12.05
2023-02-02T15:57:53.803Z,12.85
2023-02-02T16:00:28.337Z,8.87
2023-02-02T16:03:02.505Z,11.27
2023-02-02T16:05:49.250Z,10.85
2023-02-02T16:08:20.200Z,8.75
2023-02-02T16:10:50.247Z,9.93
2023-02-02T16:13:27.992Z,10.27
2023-02-02T16:15:58.002Z,11.55
2023-02-02T16:18:26.440Z,11.02
2023-02-02T16:21:00.571Z,10.02
2023-02-02T16:23:31.668Z,9.80
2023-02-02T16:26:02.742Z,11.07
2023-02-02T16:28:31.221Z,11.35
2023-02-02T16:31:01.319Z,12.75
2023-02-02T16:33:37.765Z,11.70
2023-02-02T16:36:26.123Z,11.50
2023-02-02T16:38:58.122Z,15.20
2023-02-02T16:41:30.403Z,12.48
2023-02-02T16:44:38.646Z,14.32
2023-02-02T16:47:08.096Z,14.52
2023-02-02T16:49:37.222Z,13.88
2023-02-02T16:52:17.329Z,18.10
2023-02-02T16:54:52.952Z,16.80
2023-02-02T16:57:25.189Z,17.85
2023-02-02T16:59:55.500Z,17.10
2023-02-02T17:02:30.187Z,16.73
2023-02-02T17:05:01.242Z,17.17
2023-02-02T17:07:30.542Z,15.77
2023-02-02T17:10:15.886Z,17.33
2023-02-02T17:12:46.844Z,14.23
2023-02-02T17:15:39.077Z,16.55
2023-02-02T17:18:07.366Z,15.18
2023-02-02T17:20:35.604Z,15.90
2023-02-02T17:23:05.078Z,15.65
2023-02-02T17:25:37.341Z,16.60
2023-02-02T17:28:11.328Z,16.15
2023-02-02T17:30:41.204Z,14.35
2023-02-02T17:33:14.730Z,16.10
2023-02-02T17:35:53.705Z,16.10
2023-02-02T17:38:22.973Z,15.48
2023-02-02T17:40:51.662Z,17.23
2023-02-02T17:43:21.364Z,14.50
2023-02-02T17:45:50.462Z,13.57
2023-02-02T17:48:19.154Z,14.68
2023-02-02T17:50:47.926Z,15.77
2023-02-02T17:53:17.654Z,12.55
2023-02-02T17:55:47.625Z,14.75
2023-02-02T17:58:17.515Z,12.40
2023-02-02T18:00:48.108Z,16.20
2023-02-02T18:03:21.096Z,11.07
2023-02-02T18:08:17.379Z,14.15
2023-02-02T18:10:45.516Z,12.13
2023-02-02T18:13:15.429Z,14.02
2023-02-02T18:15:43.666Z,13.48
2023-02-02T18:18:13.565Z,15.45
2023-02-02T18:20:43.167Z,13.35
2023-02-02T18:23:11.671Z,12.13
2023-02-02T18:25:40.132Z,12.70
2023-02-02T18:28:08.896Z,12.48
2023-02-02T18:30:39.299Z,13.82
2023-02-02T18:33:08.944Z,12.23
2023-02-02T18:35:39.080Z,12.23
2023-02-02T18:38:07.244Z,12.10
2023-02-02T18:40:35.476Z,11.95
2023-02-02T18:43:04.594Z,12.18
2023-02-02T18:45:32.655Z,11.50
2023-02-02T18:48:00.881Z,11.23
2023-02-02T18:50:29.165Z,11.10
2023-02-02T18:52:59.649Z,8.98
2023-02-02T18:55:28.186Z,9.90
2023-02-02T18:57:56.709Z,9.90
2023-02-02T19:00:25.273Z,10.93
2023-02-02T19:02:53.397Z,10.10
2023-02-02T19:05:39.041Z,10.27
2023-02-02T19:08:08.615Z,8.77
2023-02-02T19:10:36.725Z,7.13
2023-02-02T19:13:15.071Z,9.90
2023-02-02T19:15:43.405Z,10.07
2023-02-02T19:18:15.192Z,8.27
2023-02-02T19:20:47.872Z,7.20
2023-02-02T19:23:19.785Z,7.03
2023-02-02T19:25:51.502Z,6.68
2023-02-02T19:28:24.409Z,5.85
2023-02-02T19:30:54.799Z,5.40
2023-02-02T19:33:23.661Z,6.47
2023-02-02T19:35:53.158Z,4.35
2023-02-02T19:38:24.088Z,5.53
2023-02-02T19:40:52.763Z,6.00
2023-02-02T19:43:27.494Z,4.40
2023-02-02T19:45:57.270Z,4.50
2023-02-02T19:48:29.123Z,5.07
2023-02-02T19:50:57.706Z,4.70
2023-02-02T19:53:32.202Z,4.40
2023-02-02T19:56:00.654Z,5.13
2023-02-02T19:58:35.077Z,4.35
2023-02-02T20:01:06.726Z,4.20
2023-02-02T20:03:43.255Z,4.93
2023-02-02T20:06:15.057Z,4.55
2023-02-02T20:08:45.874Z,4.57
2023-02-02T20:11:24.663Z,4.20
2023-02-02T20:13:53.989Z,4.57
2023-02-02T20:16:25.402Z,3.38
2023-02-02T20:18:56.406Z,4.85
2023-02-02T20:21:28.133Z,4.82
2023-02-02T20:23:58.157Z,4.72
2023-02-02T20:26:28.202Z,5.43
2023-02-02T20:28:58.517Z,6.43
2023-02-02T20:31:30.948Z,11.02
2023-02-02T20:33:59.438Z,11.60
2023-02-02T20:36:35.923Z,14.30
2023-02-02T20:39:21.671Z,16.73
2023-02-02T20:41:49.855Z,14.93
2023-02-02T20:44:18.117Z,17.65
2023-02-02T20:46:47.497Z,19.40
2023-02-02T20:49:16.124Z,19.33
2023-02-02T20:51:44.377Z,22.35
2023-02-02T20:54:13.995Z,24.58
2023-02-02T20:56:42.241Z,21.55
2023-02-02T20:59:21.384Z,24.45
2023-02-02T21:01:51.504Z,22.13
2023-02-02T21:04:21.533Z,23.55
2023-02-02T21:06:50.455Z,23.02
2023-02-02T21:09:20.161Z,21.08
2023-02-02T21:11:48.920Z,23.13
2023-02-02T21:14:17.118Z,26.05
2023-02-02T21:16:45.365Z,25.23
2023-02-02T21:19:13.567Z,26.30
2023-02-02T21:21:41.853Z,25.98
2023-02-02T21:24:10.494Z,23.85
2023-02-02T21:26:40.452Z,24.70
2023-02-02T21:29:08.917Z,28.10
2023-02-02T21:31:39.839Z,25.98
2023-02-02T21:34:09.115Z,28.75
2023-02-02T21:36:40.475Z,28.05
2023-02-02T21:39:17.953Z,28.95
2023-02-02T21:41:47.990Z,31.17
2023-02-02T21:44:17.380Z,25.88
2023-02-02T21:46:47.298Z,28.45
2023-02-02T21:49:21.779Z,24.77
2023-02-02T21:51:49.961Z,24.10
2023-02-02T21:54:22.931Z,24.95
2023-02-02T21:56:53.505Z,24.33
2023-02-02T21:59:54.681Z,24.35
2023-02-02T22:02:41.414Z,27.52
2023-02-02T22:05:18.594Z,25.98
2023-02-02T22:07:48.543Z,28.38
2023-02-02T22:10:37.431Z,28.50
2023-02-02T22:13:16.152Z,27.27
2023-02-02T22:15:47.399Z,28.27
2023-02-02T22:18:17.994Z,28.98
2023-02-02T22:20:48.142Z,28.10
2023-02-02T22:23:16.935Z,28.58
2023-02-02T22:25:55.500Z,28.63
2023-02-02T22:28:30.935Z,30.15
2023-02-02T22:30:59.931Z,27.50
2023-02-02T22:33:31.007Z,28.15
2023-02-02T22:35:59.609Z,24.60
2023-02-02T22:38:27.871Z,27.30
2023-02-02T22:40:56.384Z,27.40
2023-02-02T22:43:26.408Z,27.30
2023-02-02T22:45:54.810Z,24.77
2023-02-02T22:48:23.263Z,23.55
2023-02-02T22:50:51.744Z,25.45
2023-02-02T22:53:22.759Z,21.60
2023-02-02T22:55:56.496Z,22.23
2023-02-02T22:58:27.353Z,23.33
